sensor_id;sensor_type;location;lat;lon;timestamp;P1;durP1;ratioP1;P2;durP2;ratioP2
26908;SDS011;14477;51.038;4.588;2024-03-02T00:00:18;0.75;;;0.50;;
26908;SDS011;14477;51.038;4.588;2024-03-02T00:02:46;1.00;;;0.60;;
26908;SDS011;14477;51.038;4.588;2024-03-02T00:05:15;0.90;;;0.70;;
26908;SDS011;14477;51.038;4.588;2024-03-02T00:07:42;0.65;;;0.52;;
26908;SDS011;14477;51.038;4.588;2024-03-02T00:10:10;0.77;;;0.60;;
26908;SDS011;14477;51.038;4.588;2024-03-02T00:12:40;0.75;;;0.47;;
26908;SDS011;14477;51.038;4.588;2024-03-02T00:15:06;1.17;;;0.40;;
26908;SDS011;14477;51.038;4.588;2024-03-02T00:17:55;1.45;;;0.52;;
26908;SDS011;14477;51.038;4.588;2024-03-02T00:20:23;0.50;;;0.40;;
26908;SDS011;14477;51.038;4.588;2024-03-02T00:22:55;0.50;;;0.50;;
26908;SDS011;14477;51.038;4.588;2024-03-02T00:25:36;0.75;;;0.50;;
26908;SDS011;14477;51.038;4.588;2024-03-02T00:28:11;0.40;;;0.40;;
26908;SDS011;14477;51.038;4.588;2024-03-02T00:33:18;1.27;;;0.50;;
26908;SDS011;14477;51.038;4.588;2024-03-02T00:35:45;0.90;;;0.40;;
26908;SDS011;14477;51.038;4.588;2024-03-02T00:38:10;1.75;;;0.60;;
26908;SDS011;14477;51.038;4.588;2024-03-02T00:40:37;0.60;;;0.40;;
26908;SDS011;14477;51.038;4.588;2024-03-02T00:43:03;0.60;;;0.50;;
26908;SDS011;14477;51.038;4.588;2024-03-02T00:45:29;0.60;;;0.50;;
26908;SDS011;14477;51.038;4.588;2024-03-02T00:47:55;0.50;;;0.40;;
26908;SDS011;14477;51.038;4.588;2024-03-02T00:50:21;0.50;;;0.50;;
26908;SDS011;14477;51.038;4.588;2024-03-02T00:52:46;0.40;;;0.40;;
26908;SDS011;14477;51.038;4.588;2024-03-02T00:55:13;0.35;;;0.35;;
26908;SDS011;14477;51.038;4.588;2024-03-02T00:57:39;0.50;;;0.47;;
26908;SDS011;14477;51.038;4.588;2024-03-02T01:00:05;0.30;;;0.30;;
26908;SDS011;14477;51.038;4.588;2024-03-02T01:02:35;0.32;;;0.32;;
26908;SDS011;14477;51.038;4.588;2024-03-02T01:05:01;0.40;;;0.40;;
26908;SDS011;14477;51.038;4.588;2024-03-02T01:07:26;0.93;;;0.40;;
26908;SDS011;14477;51.038;4.588;2024-03-02T01:09:55;0.90;;;0.50;;
26908;SDS011;14477;51.038;4.588;2024-03-02T01:12:21;0.50;;;0.50;;
26908;SDS011;14477;51.038;4.588;2024-03-02T01:14:46;0.35;;;0.35;;
26908;SDS011;14477;51.038;4.588;2024-03-02T01:17:12;0.33;;;0.30;;
26908;SDS011;14477;51.038;4.588;2024-03-02T01:19:38;0.22;;;0.22;;
26908;SDS011;14477;51.038;4.588;2024-03-02T01:22:06;0.52;;;0.40;;
26908;SDS011;14477;51.038;4.588;2024-03-02T01:24:32;0.43;;;0.40;;
26908;SDS011;14477;51.038;4.588;2024-03-02T01:26:58;0.40;;;0.40;;
26908;SDS011;14477;51.038;4.588;2024-03-02T01:29:23;0.40;;;0.40;;
26908;SDS011;14477;51.038;4.588;2024-03-02T01:31:49;0.40;;;0.40;;
26908;SDS011;14477;51.038;4.588;2024-03-02T01:34:16;1.85;;;0.50;;
26908;SDS011;14477;51.038;4.588;2024-03-02T01:36:42;0.50;;;0.40;;
26908;SDS011;14477;51.038;4.588;2024-03-02T01:39:08;0.40;;;0.40;;
26908;SDS011;14477;51.038;4.588;2024-03-02T01:41:34;0.30;;;0.30;;
26908;SDS011;14477;51.038;4.588;2024-03-02T01:44:00;0.30;;;0.30;;
26908;SDS011;14477;51.038;4.588;2024-03-02T01:46:26;0.60;;;0.40;;
26908;SDS011;14477;51.038;4.588;2024-03-02T01:48:51;0.60;;;0.30;;
26908;SDS011;14477;51.038;4.588;2024-03-02T01:51:17;0.30;;;0.20;;
26908;SDS011;14477;51.038;4.588;2024-03-02T01:53:43;0.67;;;0.30;;
26908;SDS011;14477;51.038;4.588;2024-03-02T01:56:08;0.40;;;0.40;;
26908;SDS011;14477;51.038;4.588;2024-03-02T01:58:34;0.40;;;0.40;;
26908;SDS011;14477;51.038;4.588;2024-03-02T02:01:00;0.57;;;0.40;;
26908;SDS011;14477;51.038;4.588;2024-03-02T02:03:26;0.30;;;0.30;;
26908;SDS011;14477;51.038;4.588;2024-03-02T02:05:51;0.52;;;0.30;;
26908;SDS011;14477;51.038;4.588;2024-03-02T02:08:17;0.33;;;0.33;;
26908;SDS011;14477;51.038;4.588;2024-03-02T02:10:43;0.30;;;0.30;;
26908;SDS011;14477;51.038;4.588;2024-03-02T02:13:09;0.63;;;0.40;;
26908;SDS011;14477;51.038;4.588;2024-03-02T02:15:34;0.40;;;0.40;;
26908;SDS011;14477;51.038;4.588;2024-03-02T02:18:01;0.65;;;0.38;;
26908;SDS011;14477;51.038;4.588;2024-03-02T02:20:28;0.82;;;0.50;;
26908;SDS011;14477;51.038;4.588;2024-03-02T02:22:58;0.67;;;0.30;;
26908;SDS011;14477;51.038;4.588;2024-03-02T02:25:28;0.38;;;0.35;;
26908;SDS011;14477;51.038;4.588;2024-03-02T02:27:54;0.55;;;0.40;;
26908;SDS011;14477;51.038;4.588;2024-03-02T02:30:24;0.93;;;0.43;;
26908;SDS011;14477;51.038;4.588;2024-03-02T02:32:51;0.43;;;0.40;;
26908;SDS011;14477;51.038;4.588;2024-03-02T02:35:17;0.80;;;0.40;;
26908;SDS011;14477;51.038;4.588;2024-03-02T02:37:43;0.60;;;0.40;;
26908;SDS011;14477;51.038;4.588;2024-03-02T02:40:11;0.40;;;0.35;;
26908;SDS011;14477;51.038;4.588;2024-03-02T02:42:37;0.40;;;0.40;;
26908;SDS011;14477;51.038;4.588;2024-03-02T02:45:04;0.45;;;0.40;;
26908;SDS011;14477;51.038;4.588;2024-03-02T02:47:30;0.95;;;0.50;;
26908;SDS011;14477;51.038;4.588;2024-03-02T02:49:58;0.45;;;0.40;;
26908;SDS011;14477;51.038;4.588;2024-03-02T02:52:24;0.47;;;0.40;;
26908;SDS011;14477;51.038;4.588;2024-03-02T02:54:50;1.35;;;0.47;;
26908;SDS011;14477;51.038;4.588;2024-03-02T02:57:16;0.70;;;0.50;;
26908;SDS011;14477;51.038;4.588;2024-03-02T02:59:42;0.40;;;0.40;;
26908;SDS011;14477;51.038;4.588;2024-03-02T03:02:07;1.08;;;0.40;;
26908;SDS011;14477;51.038;4.588;2024-03-02T03:04:33;0.40;;;0.40;;
26908;SDS011;14477;51.038;4.588;2024-03-02T03:06:59;1.23;;;0.50;;
26908;SDS011;14477;51.038;4.588;2024-03-02T03:09:25;0.60;;;0.37;;
26908;SDS011;14477;51.038;4.588;2024-03-02T03:11:50;0.65;;;0.30;;
26908;SDS011;14477;51.038;4.588;2024-03-02T03:14:16;0.97;;;0.50;;
26908;SDS011;14477;51.038;4.588;2024-03-02T03:16:42;0.60;;;0.50;;
26908;SDS011;14477;51.038;4.588;2024-03-02T03:19:07;0.40;;;0.30;;
26908;SDS011;14477;51.038;4.588;2024-03-02T03:21:33;0.40;;;0.35;;
26908;SDS011;14477;51.038;4.588;2024-03-02T03:23:59;0.50;;;0.50;;
26908;SDS011;14477;51.038;4.588;2024-03-02T03:26:25;0.70;;;0.52;;
26908;SDS011;14477;51.038;4.588;2024-03-02T03:28:50;0.93;;;0.40;;
26908;SDS011;14477;51.038;4.588;2024-03-02T03:31:16;0.40;;;0.40;;
26908;SDS011;14477;51.038;4.588;2024-03-02T03:33:42;1.00;;;0.53;;
26908;SDS011;14477;51.038;4.588;2024-03-02T03:36:07;0.30;;;0.30;;
26908;SDS011;14477;51.038;4.588;2024-03-02T03:38:33;1.67;;;0.40;;
26908;SDS011;14477;51.038;4.588;2024-03-02T03:40:59;0.30;;;0.30;;
26908;SDS011;14477;51.038;4.588;2024-03-02T03:43:24;0.50;;;0.40;;
26908;SDS011;14477;51.038;4.588;2024-03-02T03:45:50;0.90;;;0.47;;
26908;SDS011;14477;51.038;4.588;2024-03-02T03:48:16;1.23;;;0.40;;
26908;SDS011;14477;51.038;4.588;2024-03-02T03:50:42;0.50;;;0.38;;
26908;SDS011;14477;51.038;4.588;2024-03-02T03:53:08;1.03;;;0.33;;
26908;SDS011;14477;51.038;4.588;2024-03-02T03:55:33;0.43;;;0.40;;
26908;SDS011;14477;51.038;4.588;2024-03-02T03:57:59;1.00;;;0.40;;
26908;SDS011;14477;51.038;4.588;2024-03-02T04:00:25;0.88;;;0.40;;
26908;SDS011;14477;51.038;4.588;2024-03-02T04:02:51;0.40;;;0.40;;
26908;SDS011;14477;51.038;4.588;2024-03-02T04:05:17;0.40;;;0.30;;
26908;SDS011;14477;51.038;4.588;2024-03-02T04:07:42;1.70;;;0.38;;
26908;SDS011;14477;51.038;4.588;2024-03-02T04:10:09;0.40;;;0.40;;
26908;SDS011;14477;51.038;4.588;2024-03-02T04:12:38;1.00;;;0.40;;
26908;SDS011;14477;51.038;4.588;2024-03-02T04:15:07;0.57;;;0.50;;
26908;SDS011;14477;51.038;4.588;2024-03-02T04:17:33;0.95;;;0.40;;
26908;SDS011;14477;51.038;4.588;2024-03-02T04:20:00;0.90;;;0.40;;
26908;SDS011;14477;51.038;4.588;2024-03-02T04:22:27;0.67;;;0.50;;
26908;SDS011;14477;51.038;4.588;2024-03-02T04:24:53;0.98;;;0.40;;
26908;SDS011;14477;51.038;4.588;2024-03-02T04:27:19;0.50;;;0.35;;
26908;SDS011;14477;51.038;4.588;2024-03-02T04:29:45;0.28;;;0.28;;
26908;SDS011;14477;51.038;4.588;2024-03-02T04:32:10;0.70;;;0.40;;
26908;SDS011;14477;51.038;4.588;2024-03-02T04:34:36;0.40;;;0.37;;
26908;SDS011;14477;51.038;4.588;2024-03-02T04:37:02;0.40;;;0.40;;
26908;SDS011;14477;51.038;4.588;2024-03-02T04:39:27;0.67;;;0.40;;
26908;SDS011;14477;51.038;4.588;2024-03-02T04:41:53;0.30;;;0.30;;
26908;SDS011;14477;51.038;4.588;2024-03-02T04:44:19;0.80;;;0.30;;
26908;SDS011;14477;51.038;4.588;2024-03-02T04:46:45;0.40;;;0.40;;
26908;SDS011;14477;51.038;4.588;2024-03-02T04:49:10;0.95;;;0.30;;
26908;SDS011;14477;51.038;4.588;2024-03-02T04:51:36;0.60;;;0.40;;
26908;SDS011;14477;51.038;4.588;2024-03-02T04:54:02;0.40;;;0.30;;
26908;SDS011;14477;51.038;4.588;2024-03-02T04:56:28;0.50;;;0.50;;
26908;SDS011;14477;51.038;4.588;2024-03-02T04:58:56;1.60;;;0.60;;
26908;SDS011;14477;51.038;4.588;2024-03-02T05:01:22;0.93;;;0.40;;
26908;SDS011;14477;51.038;4.588;2024-03-02T05:03:48;0.50;;;0.40;;
26908;SDS011;14477;51.038;4.588;2024-03-02T05:06:14;0.60;;;0.40;;
26908;SDS011;14477;51.038;4.588;2024-03-02T05:08:39;0.70;;;0.50;;
26908;SDS011;14477;51.038;4.588;2024-03-02T05:11:05;0.55;;;0.40;;
26908;SDS011;14477;51.038;4.588;2024-03-02T05:13:49;0.77;;;0.40;;
26908;SDS011;14477;51.038;4.588;2024-03-02T05:16:15;0.50;;;0.40;;
26908;SDS011;14477;51.038;4.588;2024-03-02T05:18:41;0.40;;;0.40;;
26908;SDS011;14477;51.038;4.588;2024-03-02T05:21:06;0.43;;;0.43;;
26908;SDS011;14477;51.038;4.588;2024-03-02T05:23:32;0.27;;;0.20;;
26908;SDS011;14477;51.038;4.588;2024-03-02T05:25:58;0.30;;;0.30;;
26908;SDS011;14477;51.038;4.588;2024-03-02T05:28:24;0.85;;;0.35;;
26908;SDS011;14477;51.038;4.588;2024-03-02T05:30:49;0.53;;;0.40;;
26908;SDS011;14477;51.038;4.588;2024-03-02T05:33:15;0.80;;;0.47;;
26908;SDS011;14477;51.038;4.588;2024-03-02T05:35:41;0.40;;;0.40;;
26908;SDS011;14477;51.038;4.588;2024-03-02T05:38:08;1.08;;;0.47;;
26908;SDS011;14477;51.038;4.588;2024-03-02T05:40:34;0.50;;;0.50;;
26908;SDS011;14477;51.038;4.588;2024-03-02T05:43:00;0.40;;;0.40;;
26908;SDS011;14477;51.038;4.588;2024-03-02T05:45:25;1.33;;;0.40;;
26908;SDS011;14477;51.038;4.588;2024-03-02T05:47:51;0.47;;;0.38;;
26908;SDS011;14477;51.038;4.588;2024-03-02T05:50:17;0.47;;;0.43;;
26908;SDS011;14477;51.038;4.588;2024-03-02T05:52:45;1.50;;;0.40;;
26908;SDS011;14477;51.038;4.588;2024-03-02T05:55:10;0.52;;;0.35;;
26908;SDS011;14477;51.038;4.588;2024-03-02T05:57:36;1.10;;;0.40;;
26908;SDS011;14477;51.038;4.588;2024-03-02T06:00:20;0.70;;;0.40;;
26908;SDS011;14477;51.038;4.588;2024-03-02T06:02:47;0.43;;;0.40;;
26908;SDS011;14477;51.038;4.588;2024-03-02T06:05:13;0.70;;;0.40;;
26908;SDS011;14477;51.038;4.588;2024-03-02T06:07:40;0.95;;;0.30;;
26908;SDS011;14477;51.038;4.588;2024-03-02T06:10:05;0.50;;;0.50;;
26908;SDS011;14477;51.038;4.588;2024-03-02T06:12:33;0.30;;;0.30;;
26908;SDS011;14477;51.038;4.588;2024-03-02T06:14:59;1.75;;;0.40;;
26908;SDS011;14477;51.038;4.588;2024-03-02T06:17:25;0.68;;;0.40;;
26908;SDS011;14477;51.038;4.588;2024-03-02T06:19:51;0.47;;;0.40;;
26908;SDS011;14477;51.038;4.588;2024-03-02T06:22:17;1.77;;;0.65;;
26908;SDS011;14477;51.038;4.588;2024-03-02T06:24:44;0.38;;;0.38;;
26908;SDS011;14477;51.038;4.588;2024-03-02T06:27:09;0.60;;;0.43;;
26908;SDS011;14477;51.038;4.588;2024-03-02T06:29:35;0.37;;;0.37;;
26908;SDS011;14477;51.038;4.588;2024-03-02T06:32:01;0.65;;;0.30;;
26908;SDS011;14477;51.038;4.588;2024-03-02T06:34:27;1.70;;;0.73;;
26908;SDS011;14477;51.038;4.588;2024-03-02T06:36:52;2.40;;;0.63;;
26908;SDS011;14477;51.038;4.588;2024-03-02T06:39:18;1.45;;;0.60;;
26908;SDS011;14477;51.038;4.588;2024-03-02T06:41:44;0.43;;;0.40;;
26908;SDS011;14477;51.038;4.588;2024-03-02T06:44:12;1.13;;;0.50;;
26908;SDS011;14477;51.038;4.588;2024-03-02T06:46:38;0.60;;;0.40;;
26908;SDS011;14477;51.038;4.588;2024-03-02T06:49:04;0.50;;;0.40;;
26908;SDS011;14477;51.038;4.588;2024-03-02T06:51:30;1.10;;;0.50;;
26908;SDS011;14477;51.038;4.588;2024-03-02T06:53:55;0.63;;;0.40;;
26908;SDS011;14477;51.038;4.588;2024-03-02T06:56:21;1.07;;;0.53;;
26908;SDS011;14477;51.038;4.588;2024-03-02T06:58:47;1.58;;;0.80;;
26908;SDS011;14477;51.038;4.588;2024-03-02T07:01:12;0.90;;;0.60;;
26908;SDS011;14477;51.038;4.588;2024-03-02T07:03:39;1.10;;;0.60;;
26908;SDS011;14477;51.038;4.588;2024-03-02T07:06:05;1.77;;;0.60;;
26908;SDS011;14477;51.038;4.588;2024-03-02T07:08:30;1.10;;;0.50;;
26908;SDS011;14477;51.038;4.588;2024-03-02T07:10:56;1.45;;;0.50;;
26908;SDS011;14477;51.038;4.588;2024-03-02T07:13:22;1.07;;;0.47;;
26908;SDS011;14477;51.038;4.588;2024-03-02T07:15:48;0.60;;;0.50;;
26908;SDS011;14477;51.038;4.588;2024-03-02T07:18:39;2.40;;;0.50;;
26908;SDS011;14477;51.038;4.588;2024-03-02T07:21:10;0.90;;;0.60;;
26908;SDS011;14477;51.038;4.588;2024-03-02T07:23:36;1.17;;;0.40;;
26908;SDS011;14477;51.038;4.588;2024-03-02T07:26:02;0.95;;;0.50;;
26908;SDS011;14477;51.038;4.588;2024-03-02T07:28:28;0.98;;;0.60;;
26908;SDS011;14477;51.038;4.588;2024-03-02T07:31:01;1.00;;;0.50;;
26908;SDS011;14477;51.038;4.588;2024-03-02T07:33:30;1.08;;;0.50;;
26908;SDS011;14477;51.038;4.588;2024-03-02T07:35:56;0.60;;;0.50;;
26908;SDS011;14477;51.038;4.588;2024-03-02T07:38:24;1.75;;;0.45;;
26908;SDS011;14477;51.038;4.588;2024-03-02T07:40:50;2.03;;;0.60;;
26908;SDS011;14477;51.038;4.588;2024-03-02T07:43:16;1.35;;;0.40;;
26908;SDS011;14477;51.038;4.588;2024-03-02T07:45:42;2.22;;;0.60;;
26908;SDS011;14477;51.038;4.588;2024-03-02T07:48:08;1.37;;;0.70;;
26908;SDS011;14477;51.038;4.588;2024-03-02T07:50:34;2.28;;;0.70;;
26908;SDS011;14477;51.038;4.588;2024-03-02T07:53:03;0.80;;;0.50;;
26908;SDS011;14477;51.038;4.588;2024-03-02T07:55:29;3.90;;;0.70;;
26908;SDS011;14477;51.038;4.588;2024-03-02T07:57:56;0.87;;;0.50;;
26908;SDS011;14477;51.038;4.588;2024-03-02T08:00:22;0.68;;;0.50;;
26908;SDS011;14477;51.038;4.588;2024-03-02T08:02:48;1.42;;;0.60;;
26908;SDS011;14477;51.038;4.588;2024-03-02T08:05:18;0.63;;;0.50;;
26908;SDS011;14477;51.038;4.588;2024-03-02T08:07:45;1.00;;;0.73;;
26908;SDS011;14477;51.038;4.588;2024-03-02T08:10:12;0.77;;;0.57;;
26908;SDS011;14477;51.038;4.588;2024-03-02T08:12:38;0.77;;;0.43;;
26908;SDS011;14477;51.038;4.588;2024-03-02T08:15:04;1.00;;;0.70;;
26908;SDS011;14477;51.038;4.588;2024-03-02T08:17:30;0.80;;;0.52;;
26908;SDS011;14477;51.038;4.588;2024-03-02T08:19:56;0.70;;;0.50;;
26908;SDS011;14477;51.038;4.588;2024-03-02T08:22:23;1.70;;;0.50;;
26908;SDS011;14477;51.038;4.588;2024-03-02T08:24:51;0.57;;;0.57;;
26908;SDS011;14477;51.038;4.588;2024-03-02T08:27:17;2.58;;;0.60;;
26908;SDS011;14477;51.038;4.588;2024-03-02T08:29:43;1.10;;;0.50;;
26908;SDS011;14477;51.038;4.588;2024-03-02T08:32:09;0.77;;;0.50;;
26908;SDS011;14477;51.038;4.588;2024-03-02T08:34:35;0.97;;;0.50;;
26908;SDS011;14477;51.038;4.588;2024-03-02T08:37:01;2.13;;;0.60;;
26908;SDS011;14477;51.038;4.588;2024-03-02T08:39:27;1.83;;;0.68;;
26908;SDS011;14477;51.038;4.588;2024-03-02T08:41:53;1.33;;;0.63;;
26908;SDS011;14477;51.038;4.588;2024-03-02T08:44:19;1.48;;;0.68;;
26908;SDS011;14477;51.038;4.588;2024-03-02T08:46:45;0.50;;;0.50;;
26908;SDS011;14477;51.038;4.588;2024-03-02T08:49:11;3.05;;;0.73;;
26908;SDS011;14477;51.038;4.588;2024-03-02T08:51:38;2.70;;;0.90;;
26908;SDS011;14477;51.038;4.588;2024-03-02T08:54:03;2.35;;;0.63;;
26908;SDS011;14477;51.038;4.588;2024-03-02T08:56:30;1.80;;;0.83;;
26908;SDS011;14477;51.038;4.588;2024-03-02T08:58:56;1.93;;;0.77;;
26908;SDS011;14477;51.038;4.588;2024-03-02T09:01:22;1.73;;;0.60;;
26908;SDS011;14477;51.038;4.588;2024-03-02T09:03:48;1.83;;;0.60;;
26908;SDS011;14477;51.038;4.588;2024-03-02T09:06:16;3.72;;;0.60;;
26908;SDS011;14477;51.038;4.588;2024-03-02T09:08:43;2.33;;;0.70;;
26908;SDS011;14477;51.038;4.588;2024-03-02T09:11:09;5.47;;;1.10;;
26908;SDS011;14477;51.038;4.588;2024-03-02T09:13:36;2.53;;;0.65;;
26908;SDS011;14477;51.038;4.588;2024-03-02T09:16:02;3.33;;;0.50;;
26908;SDS011;14477;51.038;4.588;2024-03-02T09:18:29;3.40;;;0.63;;
26908;SDS011;14477;51.038;4.588;2024-03-02T09:20:54;1.67;;;0.60;;
26908;SDS011;14477;51.038;4.588;2024-03-02T09:23:20;4.07;;;0.80;;
26908;SDS011;14477;51.038;4.588;2024-03-02T09:25:46;1.90;;;0.60;;
26908;SDS011;14477;51.038;4.588;2024-03-02T09:28:12;2.35;;;0.60;;
26908;SDS011;14477;51.038;4.588;2024-03-02T09:30:38;1.50;;;0.60;;
26908;SDS011;14477;51.038;4.588;2024-03-02T09:33:04;1.87;;;0.70;;
26908;SDS011;14477;51.038;4.588;2024-03-02T09:35:30;1.98;;;0.60;;
26908;SDS011;14477;51.038;4.588;2024-03-02T09:37:56;2.13;;;0.60;;
26908;SDS011;14477;51.038;4.588;2024-03-02T09:40:22;1.40;;;0.60;;
26908;SDS011;14477;51.038;4.588;2024-03-02T09:42:48;2.15;;;0.60;;
26908;SDS011;14477;51.038;4.588;2024-03-02T09:45:26;2.97;;;0.90;;
26908;SDS011;14477;51.038;4.588;2024-03-02T09:47:52;2.10;;;0.70;;
26908;SDS011;14477;51.038;4.588;2024-03-02T09:50:18;1.70;;;0.50;;
26908;SDS011;14477;51.038;4.588;2024-03-02T09:52:44;1.75;;;0.60;;
26908;SDS011;14477;51.038;4.588;2024-03-02T09:55:18;2.40;;;0.60;;
26908;SDS011;14477;51.038;4.588;2024-03-02T09:57:45;1.67;;;0.50;;
26908;SDS011;14477;51.038;4.588;2024-03-02T10:00:11;5.88;;;1.10;;
26908;SDS011;14477;51.038;4.588;2024-03-02T10:02:40;2.75;;;0.77;;
26908;SDS011;14477;51.038;4.588;2024-03-02T10:05:07;3.15;;;0.80;;
26908;SDS011;14477;51.038;4.588;2024-03-02T10:07:34;3.22;;;0.63;;
26908;SDS011;14477;51.038;4.588;2024-03-02T10:10:00;3.67;;;0.73;;
26908;SDS011;14477;51.038;4.588;2024-03-02T10:12:41;4.60;;;0.80;;
26908;SDS011;14477;51.038;4.588;2024-03-02T10:15:07;2.28;;;0.70;;
26908;SDS011;14477;51.038;4.588;2024-03-02T10:17:34;2.77;;;0.77;;
26908;SDS011;14477;51.038;4.588;2024-03-02T10:20:20;2.55;;;0.60;;
26908;SDS011;14477;51.038;4.588;2024-03-02T10:22:48;1.80;;;0.70;;
26908;SDS011;14477;51.038;4.588;2024-03-02T10:25:32;1.50;;;0.63;;
26908;SDS011;14477;51.038;4.588;2024-03-02T10:27:59;2.13;;;0.70;;
26908;SDS011;14477;51.038;4.588;2024-03-02T10:30:28;2.58;;;0.60;;
26908;SDS011;14477;51.038;4.588;2024-03-02T10:32:54;2.13;;;0.57;;
26908;SDS011;14477;51.038;4.588;2024-03-02T10:35:21;5.57;;;0.70;;
26908;SDS011;14477;51.038;4.588;2024-03-02T10:37:48;2.60;;;1.10;;
26908;SDS011;14477;51.038;4.588;2024-03-02T10:40:15;4.15;;;0.70;;
26908;SDS011;14477;51.038;4.588;2024-03-02T10:42:41;1.63;;;0.60;;
26908;SDS011;14477;51.038;4.588;2024-03-02T10:45:11;1.95;;;0.75;;
26908;SDS011;14477;51.038;4.588;2024-03-02T10:47:39;3.80;;;0.70;;
26908;SDS011;14477;51.038;4.588;2024-03-02T10:50:07;2.05;;;0.63;;
26908;SDS011;14477;51.038;4.588;2024-03-02T10:52:37;2.75;;;0.80;;
26908;SDS011;14477;51.038;4.588;2024-03-02T10:55:04;3.67;;;0.60;;
26908;SDS011;14477;51.038;4.588;2024-03-02T10:57:53;2.85;;;0.80;;
26908;SDS011;14477;51.038;4.588;2024-03-02T11:00:21;7.87;;;1.27;;
26908;SDS011;14477;51.038;4.588;2024-03-02T11:02:52;3.78;;;0.80;;
26908;SDS011;14477;51.038;4.588;2024-03-02T11:05:43;5.00;;;0.90;;
26908;SDS011;14477;51.038;4.588;2024-03-02T11:08:12;1.15;;;0.63;;
26908;SDS011;14477;51.038;4.588;2024-03-02T11:13:26;1.57;;;0.63;;
26908;SDS011;14477;51.038;4.588;2024-03-02T11:15:58;3.70;;;0.75;;
26908;SDS011;14477;51.038;4.588;2024-03-02T11:18:30;3.45;;;0.80;;
26908;SDS011;14477;51.038;4.588;2024-03-02T11:20:57;2.88;;;0.70;;
26908;SDS011;14477;51.038;4.588;2024-03-02T11:23:34;2.50;;;0.90;;
26908;SDS011;14477;51.038;4.588;2024-03-02T11:28:45;2.42;;;0.70;;
26908;SDS011;14477;51.038;4.588;2024-03-02T11:31:12;1.42;;;0.70;;
26908;SDS011;14477;51.038;4.588;2024-03-02T11:33:38;1.80;;;0.63;;
26908;SDS011;14477;51.038;4.588;2024-03-02T11:36:06;2.50;;;0.60;;
26908;SDS011;14477;51.038;4.588;2024-03-02T11:38:33;2.15;;;0.60;;
26908;SDS011;14477;51.038;4.588;2024-03-02T11:41:02;3.05;;;0.90;;
26908;SDS011;14477;51.038;4.588;2024-03-02T11:43:38;2.75;;;0.60;;
26908;SDS011;14477;51.038;4.588;2024-03-02T11:46:06;2.58;;;0.75;;
26908;SDS011;14477;51.038;4.588;2024-03-02T11:48:32;1.53;;;0.60;;
26908;SDS011;14477;51.038;4.588;2024-03-02T11:51:00;1.95;;;0.70;;
26908;SDS011;14477;51.038;4.588;2024-03-02T11:53:26;2.15;;;0.70;;
26908;SDS011;14477;51.038;4.588;2024-03-02T11:55:57;2.65;;;0.75;;
26908;SDS011;14477;51.038;4.588;2024-03-02T11:58:24;3.27;;;0.70;;
26908;SDS011;14477;51.038;4.588;2024-03-02T12:00:52;1.83;;;0.60;;
26908;SDS011;14477;51.038;4.588;2024-03-02T12:03:18;1.05;;;0.47;;
26908;SDS011;14477;51.038;4.588;2024-03-02T12:05:52;1.17;;;0.55;;
26908;SDS011;14477;51.038;4.588;2024-03-02T12:08:18;2.05;;;0.60;;
26908;SDS011;14477;51.038;4.588;2024-03-02T12:10:55;2.53;;;0.67;;
26908;SDS011;14477;51.038;4.588;2024-03-02T12:13:21;1.58;;;0.57;;
26908;SDS011;14477;51.038;4.588;2024-03-02T12:15:47;2.47;;;0.60;;
26908;SDS011;14477;51.038;4.588;2024-03-02T12:18:17;3.72;;;0.80;;
26908;SDS011;14477;51.038;4.588;2024-03-02T12:20:43;2.27;;;0.63;;
26908;SDS011;14477;51.038;4.588;2024-03-02T12:23:09;2.78;;;0.80;;
26908;SDS011;14477;51.038;4.588;2024-03-02T12:25:35;2.30;;;0.80;;
26908;SDS011;14477;51.038;4.588;2024-03-02T12:28:01;2.63;;;0.60;;
26908;SDS011;14477;51.038;4.588;2024-03-02T12:30:30;1.77;;;0.70;;
26908;SDS011;14477;51.038;4.588;2024-03-02T12:33:00;3.15;;;0.82;;
26908;SDS011;14477;51.038;4.588;2024-03-02T12:35:26;1.70;;;0.60;;
26908;SDS011;14477;51.038;4.588;2024-03-02T12:37:52;1.75;;;0.73;;
26908;SDS011;14477;51.038;4.588;2024-03-02T12:40:19;2.15;;;0.57;;
26908;SDS011;14477;51.038;4.588;2024-03-02T12:42:47;3.28;;;0.80;;
26908;SDS011;14477;51.038;4.588;2024-03-02T12:45:15;1.48;;;0.57;;
26908;SDS011;14477;51.038;4.588;2024-03-02T12:47:42;1.43;;;0.60;;
26908;SDS011;14477;51.038;4.588;2024-03-02T12:50:08;1.42;;;0.70;;
26908;SDS011;14477;51.038;4.588;2024-03-02T12:52:35;2.10;;;0.57;;
26908;SDS011;14477;51.038;4.588;2024-03-02T12:55:01;2.45;;;0.80;;
26908;SDS011;14477;51.038;4.588;2024-03-02T12:57:30;2.38;;;0.60;;
26908;SDS011;14477;51.038;4.588;2024-03-02T13:00:06;1.20;;;0.60;;
26908;SDS011;14477;51.038;4.588;2024-03-02T13:02:34;1.40;;;0.52;;
26908;SDS011;14477;51.038;4.588;2024-03-02T13:05:01;1.83;;;0.57;;
26908;SDS011;14477;51.038;4.588;2024-03-02T13:07:28;1.10;;;0.60;;
26908;SDS011;14477;51.038;4.588;2024-03-02T13:09:55;1.98;;;0.85;;
26908;SDS011;14477;51.038;4.588;2024-03-02T13:12:21;3.30;;;0.87;;
26908;SDS011;14477;51.038;4.588;2024-03-02T13:14:52;0.75;;;0.60;;
26908;SDS011;14477;51.038;4.588;2024-03-02T13:17:18;1.90;;;0.70;;
26908;SDS011;14477;51.038;4.588;2024-03-02T13:19:54;3.30;;;0.70;;
26908;SDS011;14477;51.038;4.588;2024-03-02T13:22:21;1.38;;;0.70;;
26908;SDS011;14477;51.038;4.588;2024-03-02T13:24:48;2.10;;;0.80;;
26908;SDS011;14477;51.038;4.588;2024-03-02T13:27:14;2.00;;;0.70;;
26908;SDS011;14477;51.038;4.588;2024-03-02T13:29:41;1.48;;;0.70;;
26908;SDS011;14477;51.038;4.588;2024-03-02T13:32:07;1.42;;;0.50;;
26908;SDS011;14477;51.038;4.588;2024-03-02T13:34:34;1.75;;;0.70;;
26908;SDS011;14477;51.038;4.588;2024-03-02T13:37:01;0.73;;;0.50;;
26908;SDS011;14477;51.038;4.588;2024-03-02T13:39:27;1.40;;;0.50;;
26908;SDS011;14477;51.038;4.588;2024-03-02T13:41:56;1.30;;;0.60;;
26908;SDS011;14477;51.038;4.588;2024-03-02T13:44:32;1.13;;;0.50;;
26908;SDS011;14477;51.038;4.588;2024-03-02T13:46:59;1.10;;;0.43;;
26908;SDS011;14477;51.038;4.588;2024-03-02T13:49:25;0.80;;;0.50;;
26908;SDS011;14477;51.038;4.588;2024-03-02T13:51:58;1.05;;;0.52;;
26908;SDS011;14477;51.038;4.588;2024-03-02T13:54:43;0.98;;;0.60;;
26908;SDS011;14477;51.038;4.588;2024-03-02T13:57:10;2.03;;;0.80;;
26908;SDS011;14477;51.038;4.588;2024-03-02T13:59:37;1.38;;;0.57;;
26908;SDS011;14477;51.038;4.588;2024-03-02T14:02:07;2.30;;;0.68;;
26908;SDS011;14477;51.038;4.588;2024-03-02T14:04:34;2.35;;;0.60;;
26908;SDS011;14477;51.038;4.588;2024-03-02T14:07:00;1.77;;;0.70;;
26908;SDS011;14477;51.038;4.588;2024-03-02T14:09:27;0.70;;;0.70;;
26908;SDS011;14477;51.038;4.588;2024-03-02T14:11:53;2.15;;;0.70;;
26908;SDS011;14477;51.038;4.588;2024-03-02T14:14:20;1.70;;;0.70;;
26908;SDS011;14477;51.038;4.588;2024-03-02T14:16:46;1.17;;;0.60;;
26908;SDS011;14477;51.038;4.588;2024-03-02T14:19:12;1.60;;;0.50;;
26908;SDS011;14477;51.038;4.588;2024-03-02T14:21:38;2.50;;;0.70;;
26908;SDS011;14477;51.038;4.588;2024-03-02T14:24:04;1.10;;;0.60;;
26908;SDS011;14477;51.038;4.588;2024-03-02T14:26:32;0.85;;;0.50;;
26908;SDS011;14477;51.038;4.588;2024-03-02T14:28:58;1.10;;;0.60;;
26908;SDS011;14477;51.038;4.588;2024-03-02T14:31:27;1.00;;;0.60;;
26908;SDS011;14477;51.038;4.588;2024-03-02T14:33:53;1.85;;;0.85;;
26908;SDS011;14477;51.038;4.588;2024-03-02T14:36:19;0.75;;;0.60;;
26908;SDS011;14477;51.038;4.588;2024-03-02T14:38:45;1.17;;;0.70;;
26908;SDS011;14477;51.038;4.588;2024-03-02T14:41:11;0.90;;;0.63;;
26908;SDS011;14477;51.038;4.588;2024-03-02T14:43:38;1.70;;;0.70;;
26908;SDS011;14477;51.038;4.588;2024-03-02T14:46:04;1.42;;;0.70;;
26908;SDS011;14477;51.038;4.588;2024-03-02T14:48:31;1.02;;;0.60;;
26908;SDS011;14477;51.038;4.588;2024-03-02T14:50:57;2.13;;;0.73;;
26908;SDS011;14477;51.038;4.588;2024-03-02T14:53:22;1.33;;;0.87;;
26908;SDS011;14477;51.038;4.588;2024-03-02T14:55:48;1.02;;;0.60;;